sensor_id;sensor_type;location;lat;lon;timestamp;temperature;humidity
38784;DHT22;24531;45.502;12.238;2023-04-25T00:00:41;17.10;92.70
38784;DHT22;24531;45.502;12.238;2023-04-25T00:03:07;17.10;92.80
38784;DHT22;24531;45.502;12.238;2023-04-25T00:05:34;17.10;92.80
38784;DHT22;24531;45.502;12.238;2023-04-25T00:08:02;17.10;92.80
38784;DHT22;24531;45.502;12.238;2023-04-25T00:10:28;17.10;92.90
38784;DHT22;24531;45.502;12.238;2023-04-25T00:12:54;17.10;92.90
38784;DHT22;24531;45.502;12.238;2023-04-25T00:15:19;17.10;92.90
38784;DHT22;24531;45.502;12.238;2023-04-25T00:17:45;17.10;93.00
38784;DHT22;24531;45.502;12.238;2023-04-25T00:20:11;17.10;93.00
38784;DHT22;24531;45.502;12.238;2023-04-25T00:22:37;17.10;93.00
38784;DHT22;24531;45.502;12.238;2023-04-25T00:25:04;17.10;93.00
38784;DHT22;24531;45.502;12.238;2023-04-25T00:27:30;17.10;93.00
38784;DHT22;24531;45.502;12.238;2023-04-25T00:29:56;17.10;93.00
38784;DHT22;24531;45.502;12.238;2023-04-25T00:32:21;17.10;93.00
38784;DHT22;24531;45.502;12.238;2023-04-25T00:34:47;17.10;93.00
38784;DHT22;24531;45.502;12.238;2023-04-25T00:37:12;17.10;93.00
38784;DHT22;24531;45.502;12.238;2023-04-25T00:39:38;17.20;93.00
38784;DHT22;24531;45.502;12.238;2023-04-25T00:42:04;17.10;92.90
38784;DHT22;24531;45.502;12.238;2023-04-25T00:44:31;17.20;92.90
38784;DHT22;24531;45.502;12.238;2023-04-25T00:46:57;17.20;92.90
38784;DHT22;24531;45.502;12.238;2023-04-25T00:49:23;17.20;92.80
38784;DHT22;24531;45.502;12.238;2023-04-25T00:51:49;17.10;92.90
38784;DHT22;24531;45.502;12.238;2023-04-25T00:54:15;17.10;92.90
38784;DHT22;24531;45.502;12.238;2023-04-25T00:56:41;17.20;92.90
38784;DHT22;24531;45.502;12.238;2023-04-25T00:59:09;17.20;92.90
38784;DHT22;24531;45.502;12.238;2023-04-25T01:01:35;17.10;92.80
38784;DHT22;24531;45.502;12.238;2023-04-25T01:04:01;17.10;92.80
38784;DHT22;24531;45.502;12.238;2023-04-25T01:06:27;17.00;92.80
38784;DHT22;24531;45.502;12.238;2023-04-25T01:08:53;16.90;92.90
38784;DHT22;24531;45.502;12.238;2023-04-25T01:11:19;16.90;93.00
38784;DHT22;24531;45.502;12.238;2023-04-25T01:13:45;16.80;93.10
38784;DHT22;24531;45.502;12.238;2023-04-25T01:16:11;16.80;93.10
38784;DHT22;24531;45.502;12.238;2023-04-25T01:18:39;16.80;93.10
38784;DHT22;24531;45.502;12.238;2023-04-25T01:21:10;16.80;93.10
38784;DHT22;24531;45.502;12.238;2023-04-25T01:23:37;16.80;93.10
38784;DHT22;24531;45.502;12.238;2023-04-25T01:26:03;16.80;93.10
38784;DHT22;24531;45.502;12.238;2023-04-25T01:28:29;16.70;93.10
38784;DHT22;24531;45.502;12.238;2023-04-25T01:30:55;16.70;93.20
38784;DHT22;24531;45.502;12.238;2023-04-25T01:33:21;16.70;93.20
38784;DHT22;24531;45.502;12.238;2023-04-25T01:35:47;16.70;93.20
38784;DHT22;24531;45.502;12.238;2023-04-25T01:38:14;16.70;93.20
38784;DHT22;24531;45.502;12.238;2023-04-25T01:40:40;16.70;93.20
38784;DHT22;24531;45.502;12.238;2023-04-25T01:43:07;16.70;93.20
38784;DHT22;24531;45.502;12.238;2023-04-25T01:45:37;16.70;93.10
38784;DHT22;24531;45.502;12.238;2023-04-25T01:48:04;16.60;93.10
38784;DHT22;24531;45.502;12.238;2023-04-25T01:50:30;16.60;93.10
38784;DHT22;24531;45.502;12.238;2023-04-25T01:52:56;16.50;93.10
38784;DHT22;24531;45.502;12.238;2023-04-25T01:55:22;16.50;93.20
38784;DHT22;24531;45.502;12.238;2023-04-25T01:57:47;16.50;93.20
38784;DHT22;24531;45.502;12.238;2023-04-25T02:00:13;16.50;93.60
38784;DHT22;24531;45.502;12.238;2023-04-25T02:02:39;16.40;93.30
38784;DHT22;24531;45.502;12.238;2023-04-25T02:05:05;16.40;93.30
38784;DHT22;24531;45.502;12.238;2023-04-25T02:07:32;16.40;93.40
38784;DHT22;24531;45.502;12.238;2023-04-25T02:09:57;16.40;93.40
38784;DHT22;24531;45.502;12.238;2023-04-25T02:12:23;16.40;93.40
38784;DHT22;24531;45.502;12.238;2023-04-25T02:14:49;16.40;93.40
38784;DHT22;24531;45.502;12.238;2023-04-25T02:17:15;16.40;93.50
38784;DHT22;24531;45.502;12.238;2023-04-25T02:19:41;16.30;93.50
38784;DHT22;24531;45.502;12.238;2023-04-25T02:22:07;16.40;93.60
38784;DHT22;24531;45.502;12.238;2023-04-25T02:24:32;16.30;93.70
38784;DHT22;24531;45.502;12.238;2023-04-25T02:27:00;16.30;93.60
38784;DHT22;24531;45.502;12.238;2023-04-25T02:29:25;16.30;93.70
38784;DHT22;24531;45.502;12.238;2023-04-25T02:31:51;16.30;93.70
38784;DHT22;24531;45.502;12.238;2023-04-25T02:34:17;16.30;93.70
38784;DHT22;24531;45.502;12.238;2023-04-25T02:36:42;16.30;93.70
38784;DHT22;24531;45.502;12.238;2023-04-25T02:39:08;16.20;93.80
38784;DHT22;24531;45.502;12.238;2023-04-25T02:41:33;16.20;93.80
38784;DHT22;24531;45.502;12.238;2023-04-25T02:43:59;16.20;93.90
38784;DHT22;24531;45.502;12.238;2023-04-25T02:46:25;16.20;93.90
38784;DHT22;24531;45.502;12.238;2023-04-25T02:48:50;16.20;93.80
38784;DHT22;24531;45.502;12.238;2023-04-25T02:51:16;16.20;93.80
38784;DHT22;24531;45.502;12.238;2023-04-25T02:53:42;16.10;93.80
38784;DHT22;24531;45.502;12.238;2023-04-25T02:56:08;16.10;93.80
38784;DHT22;24531;45.502;12.238;2023-04-25T02:58:33;16.10;93.80
38784;DHT22;24531;45.502;12.238;2023-04-25T03:00:59;16.00;93.80
38784;DHT22;24531;45.502;12.238;2023-04-25T03:03:24;16.00;93.80
38784;DHT22;24531;45.502;12.238;2023-04-25T03:05:50;15.90;93.80
38784;DHT22;24531;45.502;12.238;2023-04-25T03:08:17;15.90;93.90
38784;DHT22;24531;45.502;12.238;2023-04-25T03:10:50;15.90;93.90
38784;DHT22;24531;45.502;12.238;2023-04-25T03:13:17;16.00;94.00
38784;DHT22;24531;45.502;12.238;2023-04-25T03:15:43;16.00;94.00
38784;DHT22;24531;45.502;12.238;2023-04-25T03:18:09;16.00;94.30
38784;DHT22;24531;45.502;12.238;2023-04-25T03:20:34;16.00;93.90
38784;DHT22;24531;45.502;12.238;2023-04-25T03:23:00;15.90;93.90
38784;DHT22;24531;45.502;12.238;2023-04-25T03:25:26;15.90;93.90
38784;DHT22;24531;45.502;12.238;2023-04-25T03:27:51;15.90;93.90
38784;DHT22;24531;45.502;12.238;2023-04-25T03:30:17;15.90;94.10
38784;DHT22;24531;45.502;12.238;2023-04-25T03:32:43;15.80;93.90
38784;DHT22;24531;45.502;12.238;2023-04-25T03:35:09;15.70;94.00
38784;DHT22;24531;45.502;12.238;2023-04-25T03:37:34;15.60;94.10
38784;DHT22;24531;45.502;12.238;2023-04-25T03:40:00;15.50;94.20
38784;DHT22;24531;45.502;12.238;2023-04-25T03:42:25;15.40;94.20
38784;DHT22;24531;45.502;12.238;2023-04-25T03:44:51;15.00;94.30
38784;DHT22;24531;45.502;12.238;2023-04-25T03:47:17;15.30;94.50
38784;DHT22;24531;45.502;12.238;2023-04-25T03:49:51;15.30;94.60
38784;DHT22;24531;45.502;12.238;2023-04-25T03:52:17;15.30;94.60
38784;DHT22;24531;45.502;12.238;2023-04-25T03:54:43;14.80;94.50
38784;DHT22;24531;45.502;12.238;2023-04-25T03:57:09;15.10;94.90
38784;DHT22;24531;45.502;12.238;2023-04-25T03:59:35;15.00;94.90
38784;DHT22;24531;45.502;12.238;2023-04-25T04:02:01;15.00;95.30
38784;DHT22;24531;45.502;12.238;2023-04-25T04:04:27;15.10;95.40
38784;DHT22;24531;45.502;12.238;2023-04-25T04:06:52;15.20;95.40
38784;DHT22;24531;45.502;12.238;2023-04-25T04:09:18;15.30;95.30
38784;DHT22;24531;45.502;12.238;2023-04-25T04:11:44;15.30;95.40
38784;DHT22;24531;45.502;12.238;2023-04-25T04:14:10;15.40;95.40
38784;DHT22;24531;45.502;12.238;2023-04-25T04:16:36;15.40;95.50
38784;DHT22;24531;45.502;12.238;2023-04-25T04:19:13;15.30;95.50
38784;DHT22;24531;45.502;12.238;2023-04-25T04:21:39;15.30;95.60
38784;DHT22;24531;45.502;12.238;2023-04-25T04:24:05;15.30;95.70
38784;DHT22;24531;45.502;12.238;2023-04-25T04:29:53;15.20;96.00
38784;DHT22;24531;45.502;12.238;2023-04-25T04:32:18;15.30;96.20
38784;DHT22;24531;45.502;12.238;2023-04-25T04:34:44;15.30;96.20
38784;DHT22;24531;45.502;12.238;2023-04-25T04:37:10;15.40;96.20
38784;DHT22;24531;45.502;12.238;2023-04-25T04:39:38;15.40;96.30
38784;DHT22;24531;45.502;12.238;2023-04-25T04:42:04;15.50;96.50
38784;DHT22;24531;45.502;12.238;2023-04-25T04:45:09;15.50;96.50
38784;DHT22;24531;45.502;12.238;2023-04-25T04:47:35;15.50;96.60
38784;DHT22;24531;45.502;12.238;2023-04-25T04:50:08;15.70;96.60
38784;DHT22;24531;45.502;12.238;2023-04-25T04:52:35;15.70;96.50
38784;DHT22;24531;45.502;12.238;2023-04-25T04:55:02;15.70;96.30
38784;DHT22;24531;45.502;12.238;2023-04-25T04:57:29;15.60;96.30
38784;DHT22;24531;45.502;12.238;2023-04-25T04:59:55;15.60;96.40
38784;DHT22;24531;45.502;12.238;2023-04-25T05:05:44;15.60;96.50
38784;DHT22;24531;45.502;12.238;2023-04-25T05:08:10;15.60;96.50
38784;DHT22;24531;45.502;12.238;2023-04-25T05:10:35;15.60;97.00
38784;DHT22;24531;45.502;12.238;2023-04-25T05:13:01;15.50;96.80
38784;DHT22;24531;45.502;12.238;2023-04-25T05:15:26;15.60;96.80
38784;DHT22;24531;45.502;12.238;2023-04-25T05:17:52;15.70;97.00
38784;DHT22;24531;45.502;12.238;2023-04-25T05:20:18;15.70;96.90
38784;DHT22;24531;45.502;12.238;2023-04-25T05:22:46;15.70;97.00
38784;DHT22;24531;45.502;12.238;2023-04-25T05:25:12;15.70;97.10
38784;DHT22;24531;45.502;12.238;2023-04-25T05:27:37;15.80;97.10
38784;DHT22;24531;45.502;12.238;2023-04-25T05:30:04;15.80;97.00
38784;DHT22;24531;45.502;12.238;2023-04-25T05:32:30;15.90;97.00
38784;DHT22;24531;45.502;12.238;2023-04-25T05:34:56;15.90;96.90
38784;DHT22;24531;45.502;12.238;2023-04-25T05:37:21;15.80;96.90
38784;DHT22;24531;45.502;12.238;2023-04-25T05:39:47;15.80;97.00
38784;DHT22;24531;45.502;12.238;2023-04-25T05:42:13;15.80;97.20
38784;DHT22;24531;45.502;12.238;2023-04-25T05:44:38;15.90;97.10
38784;DHT22;24531;45.502;12.238;2023-04-25T05:47:04;15.90;97.00
38784;DHT22;24531;45.502;12.238;2023-04-25T05:49:30;15.90;96.90
38784;DHT22;24531;45.502;12.238;2023-04-25T05:51:56;15.90;96.90
38784;DHT22;24531;45.502;12.238;2023-04-25T05:54:21;15.90;96.80
38784;DHT22;24531;45.502;12.238;2023-04-25T05:56:47;15.80;96.70
38784;DHT22;24531;45.502;12.238;2023-04-25T05:59:12;15.70;96.80
38784;DHT22;24531;45.502;12.238;2023-04-25T06:01:38;15.60;96.90
38784;DHT22;24531;45.502;12.238;2023-04-25T06:04:04;15.50;96.90
38784;DHT22;24531;45.502;12.238;2023-04-25T06:06:29;15.50;97.10
38784;DHT22;24531;45.502;12.238;2023-04-25T06:08:55;15.40;97.30
38784;DHT22;24531;45.502;12.238;2023-04-25T06:11:21;15.50;97.30
38784;DHT22;24531;45.502;12.238;2023-04-25T06:13:46;15.60;97.30
38784;DHT22;24531;45.502;12.238;2023-04-25T06:16:12;15.70;97.30
38784;DHT22;24531;45.502;12.238;2023-04-25T06:18:38;15.60;97.30
38784;DHT22;24531;45.502;12.238;2023-04-25T06:21:03;15.60;97.50
38784;DHT22;24531;45.502;12.238;2023-04-25T06:23:29;15.60;97.60
38784;DHT22;24531;45.502;12.238;2023-04-25T06:25:54;15.60;97.60
38784;DHT22;24531;45.502;12.238;2023-04-25T06:28:20;15.60;97.60
38784;DHT22;24531;45.502;12.238;2023-04-25T06:30:47;15.50;97.70
38784;DHT22;24531;45.502;12.238;2023-04-25T06:33:13;15.50;97.80
38784;DHT22;24531;45.502;12.238;2023-04-25T06:35:38;15.40;98.10
38784;DHT22;24531;45.502;12.238;2023-04-25T06:38:04;15.40;98.30
38784;DHT22;24531;45.502;12.238;2023-04-25T06:40:30;15.30;98.60
38784;DHT22;24531;45.502;12.238;2023-04-25T06:42:55;15.30;98.70
38784;DHT22;24531;45.502;12.238;2023-04-25T06:45:21;15.20;98.80
38784;DHT22;24531;45.502;12.238;2023-04-25T06:47:46;15.20;99.10
38784;DHT22;24531;45.502;12.238;2023-04-25T06:50:12;15.20;99.40
38784;DHT22;24531;45.502;12.238;2023-04-25T06:52:37;15.30;99.60
38784;DHT22;24531;45.502;12.238;2023-04-25T06:55:03;15.30;99.70
38784;DHT22;24531;45.502;12.238;2023-04-25T06:57:30;15.40;99.80
38784;DHT22;24531;45.502;12.238;2023-04-25T06:59:55;15.40;99.70
38784;DHT22;24531;45.502;12.238;2023-04-25T07:02:21;15.40;99.90
38784;DHT22;24531;45.502;12.238;2023-04-25T07:04:47;15.40;99.90
38784;DHT22;24531;45.502;12.238;2023-04-25T07:07:13;15.40;99.90
38784;DHT22;24531;45.502;12.238;2023-04-25T07:09:38;15.40;99.90
38784;DHT22;24531;45.502;12.238;2023-04-25T07:12:04;15.50;99.90
38784;DHT22;24531;45.502;12.238;2023-04-25T07:14:30;15.50;99.90
38784;DHT22;24531;45.502;12.238;2023-04-25T07:16:56;15.50;99.90
38784;DHT22;24531;45.502;12.238;2023-04-25T07:19:22;15.60;99.90
38784;DHT22;24531;45.502;12.238;2023-04-25T07:21:51;15.60;99.90
38784;DHT22;24531;45.502;12.238;2023-04-25T07:24:17;15.60;99.90
38784;DHT22;24531;45.502;12.238;2023-04-25T07:26:43;15.60;99.90
38784;DHT22;24531;45.502;12.238;2023-04-25T07:29:08;15.60;99.90
38784;DHT22;24531;45.502;12.238;2023-04-25T07:31:34;15.60;99.90
38784;DHT22;24531;45.502;12.238;2023-04-25T07:34:00;15.60;99.90
38784;DHT22;24531;45.502;12.238;2023-04-25T07:36:25;15.60;99.90
38784;DHT22;24531;45.502;12.238;2023-04-25T07:38:52;15.60;99.90
38784;DHT22;24531;45.502;12.238;2023-04-25T07:41:18;15.60;99.90
38784;DHT22;24531;45.502;12.238;2023-04-25T07:43:43;15.70;99.90
38784;DHT22;24531;45.502;12.238;2023-04-25T07:46:09;15.60;99.90
38784;DHT22;24531;45.502;12.238;2023-04-25T07:48:35;15.60;99.90
38784;DHT22;24531;45.502;12.238;2023-04-25T07:51:00;15.50;99.90
38784;DHT22;24531;45.502;12.238;2023-04-25T07:53:26;15.50;99.90
38784;DHT22;24531;45.502;12.238;2023-04-25T07:55:51;15.50;99.90
38784;DHT22;24531;45.502;12.238;2023-04-25T07:58:17;15.50;99.90
38784;DHT22;24531;45.502;12.238;2023-04-25T08:00:48;15.40;99.90
38784;DHT22;24531;45.502;12.238;2023-04-25T08:03:14;15.40;99.90
38784;DHT22;24531;45.502;12.238;2023-04-25T08:05:39;15.40;99.90
38784;DHT22;24531;45.502;12.238;2023-04-25T08:08:05;15.30;99.90
38784;DHT22;24531;45.502;12.238;2023-04-25T08:10:32;15.30;99.90
38784;DHT22;24531;45.502;12.238;2023-04-25T08:12:58;15.30;99.90
38784;DHT22;24531;45.502;12.238;2023-04-25T08:15:24;16.90;99.90
38784;DHT22;24531;45.502;12.238;2023-04-25T08:17:50;15.40;99.90
38784;DHT22;24531;45.502;12.238;2023-04-25T08:20:16;15.50;99.90
38784;DHT22;24531;45.502;12.238;2023-04-25T08:22:42;15.50;99.90
38784;DHT22;24531;45.502;12.238;2023-04-25T08:25:08;15.50;99.90
38784;DHT22;24531;45.502;12.238;2023-04-25T08:27:34;15.50;99.90
38784;DHT22;24531;45.502;12.238;2023-04-25T08:30:00;15.50;99.90
38784;DHT22;24531;45.502;12.238;2023-04-25T08:32:27;15.50;99.90
38784;DHT22;24531;45.502;12.238;2023-04-25T08:34:52;15.50;99.90
38784;DHT22;24531;45.502;12.238;2023-04-25T08:37:20;15.50;99.90
38784;DHT22;24531;45.502;12.238;2023-04-25T08:39:46;15.50;99.90
38784;DHT22;24531;45.502;12.238;2023-04-25T08:42:15;15.60;99.90
38784;DHT22;24531;45.502;12.238;2023-04-25T08:44:40;15.60;99.90
38784;DHT22;24531;45.502;12.238;2023-04-25T08:47:06;15.70;99.90
38784;DHT22;24531;45.502;12.238;2023-04-25T08:49:33;15.60;99.90
38784;DHT22;24531;45.502;12.238;2023-04-25T08:52:04;15.60;99.90
38784;DHT22;24531;45.502;12.238;2023-04-25T08:54:33;15.70;99.90
38784;DHT22;24531;45.502;12.238;2023-04-25T08:57:01;15.70;99.90
38784;DHT22;24531;45.502;12.238;2023-04-25T08:59:28;15.60;99.90
38784;DHT22;24531;45.502;12.238;2023-04-25T09:01:54;15.60;99.90
38784;DHT22;24531;45.502;12.238;2023-04-25T09:04:20;15.60;99.90
38784;DHT22;24531;45.502;12.238;2023-04-25T09:06:47;15.60;99.90
38784;DHT22;24531;45.502;12.238;2023-04-25T09:09:12;15.60;99.90
38784;DHT22;24531;45.502;12.238;2023-04-25T09:11:39;15.70;99.90
38784;DHT22;24531;45.502;12.238;2023-04-25T09:14:20;15.70;99.90
38784;DHT22;24531;45.502;12.238;2023-04-25T09:16:59;15.70;99.90
38784;DHT22;24531;45.502;12.238;2023-04-25T09:21:55;15.70;99.90
38784;DHT22;24531;45.502;12.238;2023-04-25T09:27:06;15.70;99.90
38784;DHT22;24531;45.502;12.238;2023-04-25T09:29:33;15.80;99.90
38784;DHT22;24531;45.502;12.238;2023-04-25T09:32:23;15.80;99.90
38784;DHT22;24531;45.502;12.238;2023-04-25T09:34:52;15.70;99.90
38784;DHT22;24531;45.502;12.238;2023-04-25T09:37:25;15.60;99.90
38784;DHT22;24531;45.502;12.238;2023-04-25T09:39:54;15.30;99.90
38784;DHT22;24531;45.502;12.238;2023-04-25T09:42:24;15.20;99.90
38784;DHT22;24531;45.502;12.238;2023-04-25T09:44:52;15.00;99.90
38784;DHT22;24531;45.502;12.238;2023-04-25T09:47:19;14.90;99.90
38784;DHT22;24531;45.502;12.238;2023-04-25T09:49:47;14.80;99.90
38784;DHT22;24531;45.502;12.238;2023-04-25T09:52:30;14.80;99.90
38784;DHT22;24531;45.502;12.238;2023-04-25T09:54:56;14.70;99.90
38784;DHT22;24531;45.502;12.238;2023-04-25T09:57:23;14.70;99.90
38784;DHT22;24531;45.502;12.238;2023-04-25T09:59:51;14.60;99.90
38784;DHT22;24531;45.502;12.238;2023-04-25T10:02:19;14.50;99.90
38784;DHT22;24531;45.502;12.238;2023-04-25T10:04:48;14.50;99.90
38784;DHT22;24531;45.502;12.238;2023-04-25T10:07:14;14.30;99.90
38784;DHT22;24531;45.502;12.238;2023-04-25T10:09:40;14.30;99.90
38784;DHT22;24531;45.502;12.238;2023-04-25T10:12:07;14.20;99.90
38784;DHT22;24531;45.502;12.238;2023-04-25T10:14:33;14.20;99.90
38784;DHT22;24531;45.502;12.238;2023-04-25T10:17:00;14.30;99.90
38784;DHT22;24531;45.502;12.238;2023-04-25T10:19:26;14.30;99.90
38784;DHT22;24531;45.502;12.238;2023-04-25T10:24:19;14.50;99.90
38784;DHT22;24531;45.502;12.238;2023-04-25T10:26:46;14.60;99.90
38784;DHT22;24531;45.502;12.238;2023-04-25T10:29:12;14.80;99.90
38784;DHT22;24531;45.502;12.238;2023-04-25T10:31:45;15.10;99.90
38784;DHT22;24531;45.502;12.238;2023-04-25T10:34:12;15.50;99.90
38784;DHT22;24531;45.502;12.238;2023-04-25T10:36:38;15.70;99.90
38784;DHT22;24531;45.502;12.238;2023-04-25T10:39:07;15.80;99.90
38784;DHT22;24531;45.502;12.238;2023-04-25T10:41:46;16.00;99.90
38784;DHT22;24531;45.502;12.238;2023-04-25T10:44:14;16.20;99.90
38784;DHT22;24531;45.502;12.238;2023-04-25T10:46:39;16.30;99.90
38784;DHT22;24531;45.502;12.238;2023-04-25T10:49:08;16.40;99.90
38784;DHT22;24531;45.502;12.238;2023-04-25T10:51:36;16.50;99.90
38784;DHT22;24531;45.502;12.238;2023-04-25T10:54:03;16.50;99.90
38784;DHT22;24531;45.502;12.238;2023-04-25T10:56:31;16.60;99.90
38784;DHT22;24531;45.502;12.238;2023-04-25T11:04:06;17.10;99.90
38784;DHT22;24531;45.502;12.238;2023-04-25T11:09:18;17.50;99.90
38784;DHT22;24531;45.502;12.238;2023-04-25T11:11:56;17.80;99.90
38784;DHT22;24531;45.502;12.238;2023-04-25T11:14:26;18.00;99.90
38784;DHT22;24531;45.502;12.238;2023-04-25T11:16:56;18.20;99.90
38784;DHT22;24531;45.502;12.238;2023-04-25T11:19:22;18.30;99.60
38784;DHT22;24531;45.502;12.238;2023-04-25T11:21:48;18.50;99.50
38784;DHT22;24531;45.502;12.238;2023-04-25T11:24:16;18.70;99.40
38784;DHT22;24531;45.502;12.238;2023-04-25T11:26:51;18.80;98.90
38784;DHT22;24531;45.502;12.238;2023-04-25T11:29:16;18.90;98.70
38784;DHT22;24531;45.502;12.238;2023-04-25T11:31:45;19.10;98.70
38784;DHT22;24531;45.502;12.238;2023-04-25T11:34:11;19.30;98.30
38784;DHT22;24531;45.502;12.238;2023-04-25T11:36:38;19.20;97.70
38784;DHT22;24531;45.502;12.238;2023-04-25T11:39:04;19.10;97.60
38784;DHT22;24531;45.502;12.238;2023-04-25T11:41:31;19.00;97.60
38784;DHT22;24531;45.502;12.238;2023-04-25T11:43:57;18.90;97.30
38784;DHT22;24531;45.502;12.238;2023-04-25T11:46:22;18.60;97.40
38784;DHT22;24531;45.502;12.238;2023-04-25T11:48:51;18.50;97.90
38784;DHT22;24531;45.502;12.238;2023-04-25T11:51:17;18.60;98.10
38784;DHT22;24531;45.502;12.238;2023-04-25T11:53:44;18.60;97.70
38784;DHT22;24531;45.502;12.238;2023-04-25T11:56:10;18.60;97.70
38784;DHT22;24531;45.502;12.238;2023-04-25T11:58:58;18.50;97.60
38784;DHT22;24531;45.502;12.238;2023-04-25T12:01:32;18.50;97.80
38784;DHT22;24531;45.502;12.238;2023-04-25T12:03:58;18.60;97.70
38784;DHT22;24531;45.502;12.238;2023-04-25T12:06:37;19.00;97.60
38784;DHT22;24531;45.502;12.238;2023-04-25T12:09:07;19.20;96.90
38784;DHT22;24531;45.502;12.238;2023-04-25T12:11:41;19.30;96.90
38784;DHT22;24531;45.502;12.238;2023-04-25T12:14:08;19.50;96.60
38784;DHT22;24531;45.502;12.238;2023-04-25T12:16:44;19.70;96.30
38784;DHT22;24531;45.502;12.238;2023-04-25T12:19:13;19.80;96.20
38784;DHT22;24531;45.502;12.238;2023-04-25T12:21:40;20.00;95.50
38784;DHT22;24531;45.502;12.238;2023-04-25T12:27:06;20.10;94.90
38784;DHT22;24531;45.502;12.238;2023-04-25T12:29:34;19.80;94.60
38784;DHT22;24531;45.502;12.238;2023-04-25T12:32:00;19.80;94.90
38784;DHT22;24531;45.502;12.238;2023-04-25T12:34:27;19.90;94.80
38784;DHT22;24531;45.502;12.238;2023-04-25T12:36:53;19.70;94.50
38784;DHT22;24531;45.502;12.238;2023-04-25T12:39:23;19.80;94.40
38784;DHT22;24531;45.502;12.238;2023-04-25T12:41:53;19.70;94.30
38784;DHT22;24531;45.502;12.238;2023-04-25T12:44:21;19.70;94.30
38784;DHT22;24531;45.502;12.238;2023-04-25T12:46:48;19.70;94.10
38784;DHT22;24531;45.502;12.238;2023-04-25T12:49:14;19.60;94.30
38784;DHT22;24531;45.502;12.238;2023-04-25T12:51:40;19.70;93.90
38784;DHT22;24531;45.502;12.238;2023-04-25T12:54:07;19.70;93.90
38784;DHT22;24531;45.502;12.238;2023-04-25T12:56:34;19.80;93.80
38784;DHT22;24531;45.502;12.238;2023-04-25T12:59:01;19.90;93.70
38784;DHT22;24531;45.502;12.238;2023-04-25T13:01:29;19.90;93.50
38784;DHT22;24531;45.502;12.238;2023-04-25T13:03:54;19.60;93.10
38784;DHT22;24531;45.502;12.238;2023-04-25T13:06:21;19.50;93.40
38784;DHT22;24531;45.502;12.238;2023-04-25T13:08:47;19.50;93.40
38784;DHT22;24531;45.502;12.238;2023-04-25T13:11:13;19.60;93.20
38784;DHT22;24531;45.502;12.238;2023-04-25T13:13:44;19.60;93.10
38784;DHT22;24531;45.502;12.238;2023-04-25T13:16:09;19.90;92.90
38784;DHT22;24531;45.502;12.238;2023-04-25T13:18:35;20.00;92.60
38784;DHT22;24531;45.502;12.238;2023-04-25T13:21:01;20.20;92.40
38784;DHT22;24531;45.502;12.238;2023-04-25T13:23:34;20.10;92.20
38784;DHT22;24531;45.502;12.238;2023-04-25T13:26:00;20.10;92.10
38784;DHT22;24531;45.502;12.238;2023-04-25T13:28:28;20.00;92.30
38784;DHT22;24531;45.502;12.238;2023-04-25T13:37:47;19.40;92.90
38784;DHT22;24531;45.502;12.238;2023-04-25T13:40:31;19.30;92.20
38784;DHT22;24531;45.502;12.238;2023-04-25T13:43:34;19.20;92.10
38784;DHT22;24531;45.502;12.238;2023-04-25T13:46:09;19.00;92.00
38784;DHT22;24531;45.502;12.238;2023-04-25T13:48:35;19.30;92.30
38784;DHT22;24531;45.502;12.238;2023-04-25T13:51:01;19.30;92.10
38784;DHT22;24531;45.502;12.238;2023-04-25T13:53:26;19.40;91.90
38784;DHT22;24531;45.502;12.238;2023-04-25T13:55:52;19.40;92.20
38784;DHT22;24531;45.502;12.238;2023-04-25T13:58:30;19.40;92.20
38784;DHT22;24531;45.502;12.238;2023-04-25T14:01:12;19.50;91.70
38784;DHT22;24531;45.502;12.238;2023-04-25T14:03:38;19.40;91.40
38784;DHT22;24531;45.502;12.238;2023-04-25T14:06:09;19.30;91.40
38784;DHT22;24531;45.502;12.238;2023-04-25T14:08:36;19.20;91.40
38784;DHT22;24531;45.502;12.238;2023-04-25T14:11:02;19.20;91.30
38784;DHT22;24531;45.502;12.238;2023-04-25T14:13:49;19.00;91.40
38784;DHT22;24531;45.502;12.238;2023-04-25T14:16:21;18.80;91.30
38784;DHT22;24531;45.502;12.238;2023-04-25T14:18:57;18.70;91.50
38784;DHT22;24531;45.502;12.238;2023-04-25T14:21:38;18.80;91.50
38784;DHT22;24531;45.502;12.238;2023-04-25T14:30:01;18.90;91.60
38784;DHT22;24531;45.502;12.238;2023-04-25T14:32:27;19.10;91.90
38784;DHT22;24531;45.502;12.238;2023-04-25T14:34:53;19.20;91.30
38784;DHT22;24531;45.502;12.238;2023-04-25T14:37:18;19.20;91.20
38784;DHT22;24531;45.502;12.238;2023-04-25T14:39:44;19.20;91.20
38784;DHT22;24531;45.502;12.238;2023-04-25T14:42:10;19.20;91.20
38784;DHT22;24531;45.502;12.238;2023-04-25T14:44:36;19.10;91.30
38784;DHT22;24531;45.502;12.238;2023-04-25T14:47:02;19.20;91.40
38784;DHT22;24531;45.502;12.238;2023-04-25T14:49:27;19.20;91.20
38784;DHT22;24531;45.502;12.238;2023-04-25T14:51:53;19.10;91.20
38784;DHT22;24531;45.502;12.238;2023-04-25T14:54:19;19.00;91.10
38784;DHT22;24531;45.502;12.238;2023-04-25T14:56:45;19.00;91.20
38784;DHT22;24531;45.502;12.238;2023-04-25T14:59:10;18.90;91.20
38784;DHT22;24531;45.502;12.238;2023-04-25T15:02:00;18.90;91.40
38784;DHT22;24531;45.502;12.238;2023-04-25T15:04:36;18.90;91.30
38784;DHT22;24531;45.502;12.238;2023-04-25T15:07:02;18.90;91.30
38784;DHT22;24531;45.502;12.238;2023-04-25T15:09:28;18.80;91.30
38784;DHT22;24531;45.502;12.238;2023-04-25T15:11:53;18.90;91.10
38784;DHT22;24531;45.502;12.238;2023-04-25T15:14:19;18.80;91.00
38784;DHT22;24531;45.502;12.238;2023-04-25T15:16:45;18.80;91.10
38784;DHT22;24531;45.502;12.238;2023-04-25T15:19:10;18.90;91.00
38784;DHT22;24531;45.502;12.238;2023-04-25T15:21:36;18.90;90.90
38784;DHT22;24531;45.502;12.238;2023-04-25T15:24:02;18.90;90.90
38784;DHT22;24531;45.502;12.238;2023-04-25T15:26:28;18.90;90.80
38784;DHT22;24531;45.502;12.238;2023-04-25T15:28:53;18.90;90.80
38784;DHT22;24531;45.502;12.238;2023-04-25T15:31:19;18.90;90.80
38784;DHT22;24531;45.502;12.238;2023-04-25T15:33:45;18.90;90.90
38784;DHT22;24531;45.502;12.238;2023-04-25T15:36:11;18.80;90.80
38784;DHT22;24531;45.502;12.238;2023-04-25T15:38:37;18.90;91.00
38784;DHT22;24531;45.502;12.238;2023-04-25T15:41:03;19.10;90.80
38784;DHT22;24531;45.502;12.238;2023-04-25T15:43:29;19.20;90.80
38784;DHT22;24531;45.502;12.238;2023-04-25T15:45:55;19.40;90.70
38784;DHT22;24531;45.502;12.238;2023-04-25T15:48:21;19.50;90.50
38784;DHT22;24531;45.502;12.238;2023-04-25T15:50:49;19.40;90.30
38784;DHT22;24531;45.502;12.238;2023-04-25T15:53:17;19.30;90.60